Time;durP1;ratioP1;P1;durP2;ratioP2;P2;SDS_P1;SDS_P2;PMS_P1;PMS_P2;Temp;Humidity;BMP_temperature;BMP_pressure;BME280_temperature;BME280_humidity;BME280_pressure;Samples;Min_cycle;Max_cycle;Signal;HPM_P1;HPM_P2
2022/07/23 00:00:23;;;;;;;6.70;6.30;;;25.40;99.90;;;;;;6087278;23;20434;-89
2022/07/23 00:02:50;;;;;;;7.63;6.20;;;25.30;99.90;;;;;;6088710;23;20477;-86
2022/07/23 00:05:19;;;;;;;6.33;5.53;;;25.30;99.00;;;;;;6087924;23;20444;-90
2022/07/23 00:07:46;;;;;;;7.10;6.43;;;25.30;98.60;;;;;;6087275;23;20515;-90
2022/07/23 00:10:13;;;;;;;5.00;4.70;;;25.30;98.50;;;;;;6086588;23;20518;-90
2022/07/23 00:12:40;;;;;;;5.43;5.03;;;25.30;98.00;;;;;;6086925;23;20861;-90
2022/07/23 00:15:09;;;;;;;5.30;5.00;;;25.30;97.90;;;;;;6089187;23;20422;-90
2022/07/23 00:17:36;;;;;;;5.33;4.93;;;25.30;97.80;;;;;;6085681;23;20497;-89
2022/07/23 00:20:04;;;;;;;6.53;5.97;;;25.30;97.70;;;;;;6091331;23;20427;-90
2022/07/23 00:22:33;;;;;;;4.70;4.37;;;25.20;97.60;;;;;;6089564;23;20437;-90
2022/07/23 00:25:00;;;;;;;5.70;5.10;;;25.20;97.50;;;;;;6090646;23;20585;-90
2022/07/23 00:27:27;;;;;;;5.70;5.20;;;25.20;97.60;;;;;;6088431;23;21118;-90
2022/07/23 00:29:54;;;;;;;5.57;5.17;;;25.20;97.60;;;;;;6089545;23;20442;-90
2022/07/23 00:32:21;;;;;;;5.13;4.73;;;25.10;97.70;;;;;;6088976;23;20497;-89
2022/07/23 00:34:51;;;;;;;5.40;4.90;;;25.20;97.60;;;;;;6089600;23;20438;-90
2022/07/23 00:37:18;;;;;;;5.37;5.00;;;25.00;97.70;;;;;;6088915;23;20468;-90
2022/07/23 00:39:46;;;;;;;5.03;4.73;;;25.00;97.70;;;;;;6088964;23;20445;-90
2022/07/23 00:42:14;;;;;;;5.40;5.00;;;25.00;97.70;;;;;;6087241;23;20442;-90
2022/07/23 00:44:41;;;;;;;5.00;4.60;;;25.00;97.70;;;;;;6092199;23;20459;-89
2022/07/23 00:47:08;;;;;;;5.47;5.07;;;24.90;97.80;;;;;;6090721;23;20457;-89
2022/07/23 00:49:35;;;;;;;5.70;5.20;;;24.90;97.80;;;;;;6102191;23;20462;-89
2022/07/23 00:52:03;;;;;;;5.40;5.00;;;24.90;97.90;;;;;;6106322;23;20493;-90
2022/07/23 00:54:31;;;;;;;5.60;5.20;;;24.90;98.00;;;;;;6090973;23;20441;-90
2022/07/23 00:56:59;;;;;;;5.27;4.97;;;24.80;98.10;;;;;;6091750;23;20439;-90
2022/07/23 00:59:26;;;;;;;5.10;4.80;;;24.70;98.10;;;;;;6090334;23;20790;-90
2022/07/23 01:01:53;;;;;;;5.10;4.73;;;24.70;98.00;;;;;;6086633;23;20438;-90
2022/07/23 01:04:20;;;;;;;5.63;5.23;;;24.60;98.10;;;;;;6089127;23;20902;-90
2022/07/23 01:06:47;;;;;;;6.07;5.60;;;24.60;98.10;;;;;;6090017;23;20438;-89
2022/07/23 01:09:15;;;;;;;5.77;5.43;;;24.70;98.20;;;;;;6089454;23;20439;-89
2022/07/23 01:11:42;;;;;;;5.10;4.70;;;24.60;98.20;;;;;;6088628;23;21035;-89
2022/07/23 01:14:12;;;;;;;5.20;4.80;;;24.50;98.20;;;;;;6091126;23;20514;-90
2022/07/23 01:16:40;;;;;;;5.50;5.10;;;24.50;98.40;;;;;;6089404;23;20450;-90
2022/07/23 01:19:07;;;;;;;5.57;5.20;;;24.50;98.40;;;;;;6085320;23;20793;-89
2022/07/23 01:21:37;;;;;;;6.30;5.27;;;24.50;98.50;;;;;;6086774;23;20468;-90
2022/07/23 01:24:07;;;;;;;5.47;5.17;;;24.50;98.50;;;;;;6085905;23;20439;-89
2022/07/23 01:26:34;;;;;;;5.33;4.90;;;24.40;98.50;;;;;;6083645;23;20521;-89
2022/07/23 01:29:01;;;;;;;5.87;5.47;;;24.50;98.60;;;;;;6083149;23;20458;-90
2022/07/23 01:31:29;;;;;;;6.00;5.60;;;24.50;98.80;;;;;;6090967;23;20458;-90
2022/07/23 01:33:56;;;;;;;6.00;5.50;;;24.40;98.90;;;;;;6086131;23;20509;-90
2022/07/23 01:36:23;;;;;;;5.60;5.20;;;24.40;99.00;;;;;;6081684;23;20441;-90
2022/07/23 01:38:51;;;;;;;5.10;4.80;;;24.40;99.20;;;;;;6086438;23;20469;-89
2022/07/23 01:41:19;;;;;;;5.27;4.87;;;24.40;99.30;;;;;;6092239;23;20438;-90
2022/07/23 01:43:46;;;;;;;5.30;5.00;;;24.30;99.30;;;;;;6086185;23;20449;-90
2022/07/23 01:46:14;;;;;;;5.77;5.30;;;24.30;99.40;;;;;;6088965;23;20450;-90
2022/07/23 01:48:41;;;;;;;5.83;5.30;;;24.30;99.50;;;;;;6084741;23;20546;-89
2022/07/23 01:51:08;;;;;;;5.63;5.23;;;24.30;99.60;;;;;;6088319;23;20484;-90
2022/07/23 01:53:35;;;;;;;5.70;5.30;;;24.30;99.70;;;;;;6089519;23;20630;-89
2022/07/23 01:56:03;;;;;;;6.00;5.50;;;24.30;99.90;;;;;;6092613;23;20434;-90
2022/07/23 01:58:31;;;;;;;6.10;5.70;;;24.20;99.90;;;;;;6083398;23;20431;-89
2022/07/23 02:00:59;;;;;;;5.37;4.97;;;24.20;99.90;;;;;;6087595;23;20442;-89
2022/07/23 02:03:26;;;;;;;5.70;5.30;;;24.10;99.90;;;;;;6082119;23;20513;-89
2022/07/23 02:05:53;;;;;;;5.50;5.10;;;24.00;99.90;;;;;;6088280;23;20786;-88
2022/07/23 02:08:21;;;;;;;5.50;5.20;;;24.00;99.90;;;;;;6088559;23;20442;-89
2022/07/23 02:10:48;;;;;;;5.90;5.50;;;23.90;99.90;;;;;;6093299;23;20453;-89
2022/07/23 02:13:15;;;;;;;6.10;5.60;;;23.90;99.90;;;;;;6092448;23;20458;-89
2022/07/23 02:15:44;;;;;;;5.50;5.10;;;24.00;99.90;;;;;;6089731;23;20449;-89
2022/07/23 02:18:11;;;;;;;5.90;5.50;;;23.90;99.90;;;;;;6091921;23;20496;-89
2022/07/23 02:20:38;;;;;;;6.87;6.27;;;23.90;99.90;;;;;;6094848;23;20448;-88
2022/07/23 02:23:06;;;;;;;6.17;5.77;;;23.70;99.90;;;;;;6089682;23;20442;-89
2022/07/23 02:25:33;;;;;;;5.03;4.73;;;23.60;99.90;;;;;;6096381;23;20441;-89
2022/07/23 02:28:00;;;;;;;5.63;5.23;;;23.40;99.90;;;;;;6105696;23;20469;-89
2022/07/23 02:30:28;;;;;;;5.83;5.40;;;23.30;99.90;;;;;;6091983;23;20446;-89
2022/07/23 02:32:56;;;;;;;5.37;4.90;;;23.20;99.90;;;;;;6090193;23;20494;-89
2022/07/23 02:35:23;;;;;;;5.23;4.93;;;23.10;99.90;;;;;;6090226;23;20504;-89
2022/07/23 02:37:51;;;;;;;5.67;5.37;;;23.00;99.90;;;;;;6085184;23;20985;-89
2022/07/23 02:40:18;;;;;;;5.57;5.27;;;22.90;99.90;;;;;;6089464;23;20472;-89
2022/07/23 02:42:45;;;;;;;5.43;5.03;;;22.90;99.90;;;;;;6084991;23;20434;-89
2022/07/23 02:45:14;;;;;;;5.87;5.47;;;22.90;99.90;;;;;;6085752;23;20529;-89
2022/07/23 02:47:41;;;;;;;5.97;5.57;;;23.00;99.90;;;;;;6087957;23;20457;-89
2022/07/23 02:50:11;;;;;;;5.60;5.20;;;23.00;99.90;;;;;;6091321;23;20929;-90
2022/07/23 02:52:39;;;;;;;5.20;4.90;;;23.00;99.90;;;;;;6090105;23;20945;-89
2022/07/23 02:55:07;;;;;;;5.97;5.57;;;23.00;99.90;;;;;;6084021;23;20965;-89
2022/07/23 02:57:34;;;;;;;5.47;5.07;;;23.00;99.90;;;;;;6085373;23;20455;-89
2022/07/23 03:00:01;;;;;;;5.53;5.10;;;23.00;99.90;;;;;;6086301;23;20534;-89
2022/07/23 03:02:29;;;;;;;5.97;5.57;;;22.90;99.90;;;;;;6084251;23;21033;-89
2022/07/23 03:04:56;;;;;;;5.30;4.90;;;22.90;99.90;;;;;;6088075;23;20526;-89
2022/07/23 03:07:25;;;;;;;5.40;5.10;;;22.90;99.90;;;;;;6088464;23;20483;-88
2022/07/23 03:09:52;;;;;;;6.30;5.90;;;22.90;99.90;;;;;;6087322;23;20541;-88
2022/07/23 03:12:19;;;;;;;6.57;6.17;;;23.00;99.90;;;;;;6087121;23;20553;-88
2022/07/23 03:14:46;;;;;;;6.00;5.60;;;22.90;99.90;;;;;;6091023;23;21060;-89
2022/07/23 03:17:13;;;;;;;6.30;5.90;;;23.00;99.90;;;;;;6088494;23;20462;-89
2022/07/23 03:19:41;;;;;;;6.23;5.83;;;23.00;99.90;;;;;;6103930;23;20498;-89
2022/07/23 03:22:08;;;;;;;6.53;6.13;;;23.00;99.90;;;;;;6094838;23;20450;-89
2022/07/23 03:24:55;;;;;;;6.67;6.17;;;23.00;99.90;;;;;;6088605;23;20434;-89
2022/07/23 03:27:22;;;;;;;6.90;6.30;;;23.00;99.90;;;;;;6089096;23;20438;-89
2022/07/23 03:29:49;;;;;;;6.00;5.60;;;22.90;99.90;;;;;;6087702;23;20496;-89
2022/07/23 03:32:17;;;;;;;5.70;5.30;;;22.80;99.90;;;;;;6089017;23;20466;-88
2022/07/23 03:34:44;;;;;;;5.87;5.47;;;22.70;99.90;;;;;;6088071;23;20779;-89
2022/07/23 03:37:11;;;;;;;6.57;6.17;;;22.60;99.90;;;;;;6089463;23;20470;-89
2022/07/23 03:39:40;;;;;;;6.30;5.80;;;22.60;99.90;;;;;;6087731;23;20470;-89
2022/07/23 03:42:07;;;;;;;6.90;6.37;;;22.50;99.90;;;;;;6090211;23;20489;-88
2022/07/23 03:44:36;;;;;;;6.27;5.87;;;22.40;99.90;;;;;;6088102;23;20434;-89
2022/07/23 03:47:03;;;;;;;5.77;5.37;;;22.30;99.90;;;;;;6088896;23;21293;-88
2022/07/23 03:49:30;;;;;;;6.00;5.60;;;22.30;99.90;;;;;;6079958;23;20440;-88
2022/07/23 03:51:58;;;;;;;5.37;5.07;;;22.20;99.90;;;;;;6088392;23;20474;-88
2022/07/23 03:54:25;;;;;;;5.90;5.50;;;22.20;99.90;;;;;;6084624;23;20489;-89
2022/07/23 03:56:53;;;;;;;5.50;5.13;;;22.20;99.90;;;;;;6092154;23;20466;-83
2022/07/23 03:59:20;;;;;;;5.60;5.20;;;22.20;99.90;;;;;;6087300;23;20465;-82
2022/07/23 04:01:47;;;;;;;5.10;4.80;;;22.20;99.90;;;;;;6093237;23;20465;-83
2022/07/23 04:04:14;;;;;;;5.90;5.50;;;22.10;99.90;;;;;;6095190;23;20477;-83
2022/07/23 04:06:41;;;;;;;5.53;5.13;;;22.10;99.90;;;;;;6085849;23;20435;-83
2022/07/23 04:09:08;;;;;;;5.90;5.40;;;22.10;99.90;;;;;;6084590;23;20968;-83
2022/07/23 04:11:36;;;;;;;5.53;5.20;;;22.10;99.90;;;;;;6088678;23;20502;-83
2022/07/23 04:14:05;;;;;;;6.17;5.77;;;22.10;99.90;;;;;;6082876;23;20470;-83
2022/07/23 04:16:32;;;;;;;5.70;5.30;;;22.10;99.90;;;;;;6088016;23;20438;-83
2022/07/23 04:19:00;;;;;;;5.60;5.20;;;22.10;99.90;;;;;;6087324;23;20443;-83
2022/07/23 04:21:26;;;;;;;6.13;5.73;;;22.10;99.90;;;;;;6085016;23;20450;-83
2022/07/23 04:23:54;;;;;;;5.40;5.10;;;22.20;99.90;;;;;;6081488;23;20442;-83
2022/07/23 04:26:21;;;;;;;5.90;5.50;;;22.20;99.90;;;;;;6085119;23;20470;-83
2022/07/23 04:28:48;;;;;;;5.37;4.97;;;22.20;99.90;;;;;;6088099;23;20431;-83
2022/07/23 04:31:17;;;;;;;5.90;5.40;;;22.40;99.90;;;;;;6086565;23;20952;-83
2022/07/23 04:33:45;;;;;;;5.70;5.23;;;22.40;99.90;;;;;;6086354;23;20474;-83
2022/07/23 04:36:12;;;;;;;5.80;5.30;;;22.50;99.90;;;;;;6081368;23;20512;-83
2022/07/23 04:38:39;;;;;;;5.97;5.57;;;22.50;99.90;;;;;;6089359;23;20925;-83
2022/07/23 04:41:06;;;;;;;6.07;5.60;;;22.50;99.90;;;;;;6087245;23;20479;-83
2022/07/23 04:43:33;;;;;;;5.40;5.10;;;22.50;99.90;;;;;;6085751;23;20944;-84
2022/07/23 04:46:00;;;;;;;6.00;5.60;;;22.50;99.90;;;;;;6090259;23;20443;-83
2022/07/23 04:48:29;;;;;;;5.37;4.97;;;22.40;99.90;;;;;;6079132;23;20463;-83
2022/07/23 04:50:56;;;;;;;6.47;5.97;;;22.40;99.90;;;;;;5571610;22;20552;-82
2022/07/23 04:53:23;;;;;;;6.40;6.00;;;22.40;99.90;;;;;;5047897;28;20502;-84
2022/07/23 04:55:50;;;;;;;6.40;6.00;;;22.50;99.90;;;;;;5053650;28;20798;-83
2022/07/23 04:58:17;;;;;;;5.50;5.20;;;22.50;99.90;;;;;;5045623;28;20447;-83
2022/07/23 05:00:44;;;;;;;5.90;5.50;;;22.60;99.90;;;;;;5045442;28;20600;-82
2022/07/23 05:03:12;;;;;;;6.80;6.30;;;22.70;99.90;;;;;;5045832;28;20551;-86
2022/07/23 05:05:41;;;;;;;6.70;6.10;;;22.70;99.90;;;;;;5051333;28;20479;-90
2022/07/23 05:08:08;;;;;;;6.60;6.20;;;22.70;99.90;;;;;;5051055;28;20481;-90
2022/07/23 05:10:36;;;;;;;5.50;5.10;;;22.80;99.90;;;;;;5047154;28;20478;-91
2022/07/23 05:13:02;;;;;;;5.70;5.30;;;22.80;99.90;;;;;;5048347;28;20533;-91
2022/07/23 05:15:30;;;;;;;6.80;6.30;;;22.80;99.90;;;;;;5048947;28;20999;-91
2022/07/23 05:17:57;;;;;;;5.67;5.30;;;22.90;99.90;;;;;;5052448;28;21034;-91
2022/07/23 05:20:24;;;;;;;5.80;5.40;;;22.90;99.90;;;;;;5042562;28;21422;-90
2022/07/23 05:22:52;;;;;;;5.60;5.20;;;23.00;99.90;;;;;;5051522;28;20460;-91
2022/07/23 05:25:19;;;;;;;6.00;5.60;;;23.00;99.90;;;;;;5051010;28;20945;-90
2022/07/23 05:27:46;;;;;;;6.27;5.77;;;23.10;99.90;;;;;;5046097;28;20517;-90
2022/07/23 05:30:14;;;;;;;6.40;5.90;;;23.20;99.90;;;;;;5042572;28;20529;-90
2022/07/23 05:32:41;;;;;;;6.60;6.10;;;23.40;99.90;;;;;;5046474;28;20479;-89
2022/07/23 05:35:09;;;;;;;6.50;6.07;;;23.50;99.90;;;;;;5048121;28;20459;-91
2022/07/23 05:37:36;;;;;;;6.00;5.60;;;23.60;99.90;;;;;;5046269;28;20458;-91
2022/07/23 05:40:07;;;;;;;6.37;5.97;;;23.60;99.90;;;;;;5044516;28;20557;-90
2022/07/23 05:42:34;;;;;;;6.50;5.90;;;23.70;99.90;;;;;;5044783;28;20577;-89
2022/07/23 05:45:01;;;;;;;6.17;5.70;;;23.80;99.90;;;;;;5041976;28;20480;-93
2022/07/23 05:47:29;;;;;;;6.17;5.67;;;23.90;99.90;;;;;;5045794;28;20962;-93
2022/07/23 05:49:56;;;;;;;6.10;5.70;;;23.90;99.90;;;;;;5046568;28;20471;-92
2022/07/23 05:52:27;;;;;;;6.20;5.80;;;24.00;99.90;;;;;;5036051;28;20468;-91
2022/07/23 05:54:56;;;;;;;5.93;5.53;;;24.20;99.90;;;;;;5040291;28;20464;-94
2022/07/23 05:57:25;;;;;;;6.37;5.90;;;24.20;99.90;;;;;;5037630;28;20482;-90
2022/07/23 05:59:52;;;;;;;6.13;5.70;;;24.30;99.90;;;;;;5042137;28;20448;-91
2022/07/23 06:02:19;;;;;;;6.40;6.00;;;24.30;99.90;;;;;;5044944;28;20463;-91
2022/07/23 06:04:46;;;;;;;6.80;6.30;;;24.30;99.90;;;;;;5046363;28;20444;-90
2022/07/23 06:07:13;;;;;;;6.60;6.00;;;24.30;99.90;;;;;;5043815;28;20546;-91
2022/07/23 06:09:40;;;;;;;6.43;6.00;;;24.30;99.90;;;;;;5046688;28;21469;-84
2022/07/23 06:12:08;;;;;;;6.30;5.80;;;24.20;99.90;;;;;;5039861;28;20542;-80
2022/07/23 06:14:36;;;;;;;6.60;6.10;;;24.20;99.90;;;;;;5043626;28;20509;-88
2022/07/23 06:17:04;;;;;;;5.97;5.57;;;24.20;99.90;;;;;;5045127;28;20487;-89
2022/07/23 06:19:31;;;;;;;6.97;5.77;;;23.90;99.90;;;;;;5049673;28;20454;-90
2022/07/23 06:21:58;;;;;;;6.50;6.00;;;24.00;99.90;;;;;;5059857;28;20515;-91
2022/07/23 06:24:25;;;;;;;6.77;6.07;;;24.10;99.90;;;;;;5051166;28;20982;-91
2022/07/23 06:26:52;;;;;;;6.67;6.07;;;24.10;99.90;;;;;;5048011;28;20471;-91
2022/07/23 06:29:19;;;;;;;6.60;6.10;;;24.10;99.90;;;;;;5046899;28;20554;-92
2022/07/23 06:31:48;;;;;;;6.83;6.27;;;24.20;99.90;;;;;;5045034;28;20892;-91
2022/07/23 06:34:15;;;;;;;6.77;6.27;;;24.30;99.90;;;;;;5045001;28;20546;-88
2022/07/23 06:36:42;;;;;;;6.50;6.10;;;24.30;99.90;;;;;;5049588;28;20467;-89
2022/07/23 06:39:09;;;;;;;6.97;6.47;;;24.50;99.90;;;;;;5043543;28;20488;-90
2022/07/23 06:41:36;;;;;;;6.90;6.30;;;24.60;99.90;;;;;;5040084;28;20448;-89
2022/07/23 06:44:04;;;;;;;7.20;6.60;;;24.70;99.90;;;;;;5045781;28;20559;-89
2022/07/23 06:46:31;;;;;;;7.10;6.60;;;24.80;99.90;;;;;;5045038;28;20996;-87
2022/07/23 06:48:59;;;;;;;7.17;6.57;;;24.90;99.90;;;;;;5049553;28;20462;-87
2022/07/23 06:51:26;;;;;;;6.30;5.83;;;24.90;99.90;;;;;;5047326;28;20541;-87
2022/07/23 06:53:54;;;;;;;6.83;6.23;;;24.90;99.90;;;;;;5041610;28;20490;-87
2022/07/23 06:56:23;;;;;;;6.80;6.30;;;24.80;99.90;;;;;;5040337;28;20507;-87
2022/07/23 06:58:50;;;;;;;6.87;6.27;;;24.70;99.90;;;;;;5046197;28;20463;-87
2022/07/23 07:01:17;;;;;;;7.53;6.40;;;24.60;99.90;;;;;;5042980;28;20456;-85
2022/07/23 07:03:45;;;;;;;6.40;5.97;;;24.40;99.90;;;;;;5026091;28;20456;-76
2022/07/23 07:06:14;;;;;;;6.93;6.27;;;24.20;99.90;;;;;;5045522;28;20481;-86
2022/07/23 07:08:42;;;;;;;8.00;7.40;;;24.00;99.90;;;;;;5035492;28;20552;-86
2022/07/23 07:11:10;;;;;;;7.60;7.10;;;23.80;99.90;;;;;;5038192;28;20478;-86
2022/07/23 07:13:37;;;;;;;6.63;6.13;;;23.50;99.90;;;;;;5034137;28;20586;-86
2022/07/23 07:16:05;;;;;;;7.03;6.43;;;23.40;99.90;;;;;;5041754;28;20473;-85
2022/07/23 07:18:32;;;;;;;6.80;6.30;;;23.10;99.90;;;;;;5041444;28;20478;-85
2022/07/23 07:20:59;;;;;;;7.60;6.73;;;22.90;99.90;;;;;;5039590;28;20536;-86
2022/07/23 07:23:28;;;;;;;8.00;7.40;;;22.70;99.90;;;;;;5033599;28;20506;-86
2022/07/23 07:25:55;;;;;;;8.23;7.57;;;22.60;99.90;;;;;;5044515;28;21068;-86
2022/07/23 07:28:21;;;;;;;7.43;6.93;;;22.50;99.90;;;;;;5038961;28;20494;-85
2022/07/23 07:30:49;;;;;;;8.60;7.90;;;22.40;99.90;;;;;;5041555;28;20524;-86
2022/07/23 07:33:16;;;;;;;8.53;7.93;;;22.40;99.90;;;;;;5038480;28;20502;-86
2022/07/23 07:35:43;;;;;;;7.83;7.23;;;22.50;99.90;;;;;;5038079;28;21005;-86
2022/07/23 07:38:10;;;;;;;9.10;8.33;;;22.20;99.90;;;;;;5041650;28;20870;-86
2022/07/23 07:40:39;;;;;;;8.83;8.13;;;22.10;99.90;;;;;;5039809;28;20534;-85
2022/07/23 07:43:06;;;;;;;8.10;7.50;;;22.20;99.90;;;;;;5043093;28;20833;-87
2022/07/23 07:45:33;;;;;;;9.10;8.40;;;22.20;99.90;;;;;;5040889;28;20593;-91
2022/07/23 07:48:00;;;;;;;8.43;7.70;;;22.40;99.90;;;;;;5044919;28;20478;-92
2022/07/23 07:50:27;;;;;;;7.80;7.30;;;22.70;99.90;;;;;;5044043;28;20447;-92
2022/07/23 07:52:55;;;;;;;8.33;7.70;;;22.90;99.90;;;;;;5046815;28;22363;-91
2022/07/23 07:55:22;;;;;;;8.03;7.50;;;23.30;99.90;;;;;;5054409;28;20502;-91
2022/07/23 07:57:50;;;;;;;8.30;7.70;;;23.20;99.90;;;;;;5051597;28;20819;-92
2022/07/23 08:00:18;;;;;;;7.53;7.03;;;23.30;99.90;;;;;;5042549;28;20554;-88
2022/07/23 08:02:47;;;;;;;8.23;7.57;;;23.20;99.90;;;;;;5045638;28;20539;-88
2022/07/23 08:05:14;;;;;;;7.87;7.37;;;23.00;99.90;;;;;;5042019;28;20571;-88
2022/07/23 08:07:42;;;;;;;7.90;7.40;;;22.90;99.90;;;;;;5044083;28;20467;-88
2022/07/23 08:10:10;;;;;;;8.20;7.60;;;22.70;99.90;;;;;;5044763;28;20494;-88
2022/07/23 08:12:44;;;;;;;9.00;8.40;;;22.60;99.90;;;;;;5049828;28;20439;-88
2022/07/23 08:15:14;;;;;;;8.30;7.70;;;22.40;99.90;;;;;;5040648;28;20568;-87
2022/07/23 08:17:41;;;;;;;8.10;7.57;;;22.20;99.90;;;;;;5040044;28;20487;-86
2022/07/23 08:20:10;;;;;;;8.60;7.90;;;22.10;99.90;;;;;;5043799;28;20812;-86
2022/07/23 08:22:46;;;;;;;8.23;7.63;;;22.00;99.90;;;;;;5044546;28;20466;-86
2022/07/23 08:25:14;;;;;;;8.83;8.07;;;21.90;99.90;;;;;;5049538;28;20474;-86
2022/07/23 08:27:41;;;;;;;8.80;8.10;;;21.80;99.90;;;;;;5039747;28;20834;-86
2022/07/23 08:30:10;;;;;;;8.53;7.90;;;21.80;99.90;;;;;;5038105;28;20487;-87
2022/07/23 08:32:54;;;;;;;8.10;7.40;;;21.70;99.90;;;;;;5041311;28;20550;-87
2022/07/23 08:35:27;;;;;;;7.90;7.20;;;21.70;99.90;;;;;;5043303;28;20498;-88
2022/07/23 08:37:54;;;;;;;7.50;7.00;;;22.10;99.90;;;;;;5046071;28;20467;-87
2022/07/23 08:40:22;;;;;;;7.40;6.90;;;22.20;99.90;;;;;;5051103;28;20470;-87
2022/07/23 08:42:50;;;;;;;7.63;7.03;;;22.50;99.90;;;;;;5043135;28;20473;-87
2022/07/23 08:45:20;;;;;;;7.70;7.13;;;22.50;99.90;;;;;;5051117;28;20443;-87
2022/07/23 08:47:50;;;;;;;6.90;6.40;;;22.40;99.90;;;;;;5046175;28;20994;-87
2022/07/23 08:50:19;;;;;;;7.17;6.77;;;22.60;99.90;;;;;;5051065;28;20443;-88
2022/07/23 08:52:46;;;;;;;7.20;6.70;;;22.80;99.90;;;;;;5047102;28;20509;-88
2022/07/23 08:55:13;;;;;;;6.97;6.47;;;23.10;99.90;;;;;;5047673;28;20628;-76
2022/07/23 08:57:40;;;;;;;6.30;5.80;;;23.60;99.90;;;;;;5050023;28;20968;-94
2022/07/23 09:00:09;;;;;;;5.87;5.40;;;24.30;99.90;;;;;;5047916;28;20471;-87
2022/07/23 09:02:41;;;;;;;6.30;5.80;;;25.00;99.90;;;;;;5048303;28;20796;-87
2022/07/23 09:05:09;;;;;;;5.60;5.20;;;25.50;99.90;;;;;;5046954;28;20475;-88
2022/07/23 09:07:38;;;;;;;6.40;5.90;;;26.20;99.90;;;;;;5050403;28;20555;-84
2022/07/23 09:10:12;;;;;;;6.13;5.60;;;27.00;99.90;;;;;;5044609;28;20454;-86
2022/07/23 09:12:39;;;;;;;5.17;4.87;;;27.90;99.90;;;;;;5050425;28;20557;-91
2022/07/23 09:15:08;;;;;;;5.20;4.90;;;29.00;99.90;;;;;;5047597;28;20532;-91
2022/07/23 09:17:39;;;;;;;5.57;5.20;;;29.70;99.90;;;;;;5048574;28;20487;-90
2022/07/23 09:20:13;;;;;;;6.00;5.60;;;30.20;98.70;;;;;;5049037;28;20818;-91
2022/07/23 09:22:44;;;;;;;5.53;5.13;;;30.00;96.90;;;;;;5045057;28;20462;-88
2022/07/23 09:25:13;;;;;;;5.90;5.50;;;29.50;96.90;;;;;;5046212;28;20558;-87
2022/07/23 09:27:53;;;;;;;5.57;5.17;;;28.90;97.90;;;;;;5050966;28;20459;-87
2022/07/23 09:30:21;;;;;;;5.53;5.23;;;28.30;98.30;;;;;;5059392;28;20519;-87
2022/07/23 09:33:07;;;;;;;6.00;5.63;;;28.00;99.60;;;;;;5061455;28;20477;-88
2022/07/23 09:35:50;;;;;;;5.20;4.90;;;28.30;98.20;;;;;;5050355;28;20836;-88
2022/07/23 09:38:19;;;;;;;5.57;5.17;;;28.70;98.80;;;;;;5045882;28;20504;-87
2022/07/23 09:41:05;;;;;;;6.40;6.00;;;29.00;97.70;;;;;;5053624;28;20559;-88
2022/07/23 09:43:32;;;;;;;5.83;5.53;;;29.20;96.90;;;;;;5047721;28;20478;-88
2022/07/23 09:46:18;;;;;;;6.17;5.77;;;29.40;96.30;;;;;;5043244;28;20494;-88
2022/07/23 09:48:45;;;;;;;5.23;4.93;;;29.50;96.50;;;;;;5049423;28;20512;-88
2022/07/23 09:51:12;;;;;;;5.77;5.37;;;29.80;95.60;;;;;;5054173;28;20979;-90
2022/07/23 09:53:41;;;;;;;5.60;5.20;;;30.20;94.10;;;;;;5045695;28;20820;-89
2022/07/23 09:56:09;;;;;;;5.90;5.50;;;30.50;93.20;;;;;;5053025;28;20444;-90
2022/07/23 09:58:49;;;;;;;5.70;5.30;;;30.50;93.30;;;;;;5054901;28;20459;-90
2022/07/23 10:01:17;;;;;;;6.10;5.60;;;30.80;93.20;;;;;;5053422;28;20481;-90
2022/07/23 10:03:44;;;;;;;6.73;6.33;;;31.40;93.20;;;;;;5051841;28;20972;-90
2022/07/23 10:06:14;;;;;;;6.10;5.70;;;32.00;91.50;;;;;;5052948;28;20938;-90
2022/07/23 10:08:45;;;;;;;6.40;6.00;;;32.40;91.10;;;;;;5051680;28;20547;-90
2022/07/23 10:11:14;;;;;;;5.23;4.93;;;32.70;88.90;;;;;;5037750;28;20483;-90
2022/07/23 10:13:52;;;;;;;7.03;6.40;;;33.00;89.70;;;;;;5051972;28;20451;-90
2022/07/23 10:16:20;;;;;;;6.27;5.73;;;33.20;87.10;;;;;;5043854;28;20566;-90
2022/07/23 10:18:47;;;;;;;7.77;7.27;;;33.00;87.10;;;;;;5053069;28;20942;-91
2022/07/23 10:21:21;;;;;;;5.50;5.20;;;32.50;88.00;;;;;;5056356;28;20468;-91
2022/07/23 10:24:05;;;;;;;5.67;5.27;;;32.50;89.60;;;;;;5043269;28;20546;-90
2022/07/23 10:26:39;;;;;;;5.60;5.10;;;32.80;89.20;;;;;;5035680;28;21016;-80
2022/07/23 10:29:24;;;;;;;6.03;5.57;;;33.20;88.00;;;;;;5047386;28;20561;-91
2022/07/23 10:31:59;;;;;;;6.13;5.73;;;33.60;84.90;;;;;;5044067;28;20494;-92
2022/07/23 10:34:35;;;;;;;6.13;5.73;;;33.90;83.60;;;;;;5046899;28;20573;-92
2022/07/23 10:37:12;;;;;;;5.70;5.30;;;34.20;83.10;;;;;;5048188;28;20484;-93
2022/07/23 10:39:41;;;;;;;6.13;5.73;;;34.50;80.50;;;;;;5049818;28;20491;-92
2022/07/23 10:42:13;;;;;;;5.83;5.53;;;34.70;78.60;;;;;;5049913;28;20574;-92
2022/07/23 10:44:43;;;;;;;6.13;5.73;;;34.60;78.90;;;;;;5052791;28;20467;-92
2022/07/23 10:49:52;;;;;;;5.77;5.37;;;34.80;79.00;;;;;;5064619;28;20826;-93
2022/07/23 10:52:24;;;;;;;6.10;5.60;;;34.90;73.20;;;;;;5068541;28;20566;-91
2022/07/23 10:54:56;;;;;;;5.70;5.30;;;34.30;73.20;;;;;;5065394;28;20498;-93
2022/07/23 10:57:30;;;;;;;5.50;5.10;;;33.60;70.70;;;;;;5075520;28;20452;-93
2022/07/23 11:00:17;;;;;;;5.33;5.03;;;33.50;73.90;;;;;;5058901;28;21025;-92
2022/07/23 11:02:46;;;;;;;5.23;4.93;;;33.40;75.70;;;;;;5048703;28;20451;-91
2022/07/23 11:05:15;;;;;;;5.33;5.03;;;33.30;73.50;;;;;;5056581;28;20494;-92
2022/07/23 11:08:14;;;;;;;5.30;4.90;;;32.80;74.20;;;;;;5060031;28;20511;-92
2022/07/23 11:10:46;;;;;;;5.27;4.97;;;32.20;77.70;;;;;;5054968;28;20471;-92
2022/07/23 11:13:48;;;;;;;5.90;5.50;;;32.20;78.40;;;;;;5049159;28;20459;-93
2022/07/23 11:16:30;;;;;;;5.33;4.83;;;32.80;78.50;;;;;;5047798;28;20535;-93
2022/07/23 11:19:00;;;;;;;5.90;5.50;;;33.20;73.90;;;;;;5049657;28;20544;-94
2022/07/23 11:21:47;;;;;;;5.50;5.20;;;33.10;74.90;;;;;;5050479;28;20475;-92
2022/07/23 11:24:17;;;;;;;6.20;5.80;;;33.30;75.10;;;;;;5043797;28;20894;-93
2022/07/23 11:26:49;;;;;;;5.77;5.37;;;33.50;74.40;;;;;;5049351;28;20467;-93
2022/07/23 11:29:45;;;;;;;5.93;5.50;;;33.60;73.30;;;;;;5044646;28;20454;-93
2022/07/23 11:32:29;;;;;;;5.27;4.97;;;33.90;72.60;;;;;;5043253;28;20950;-90
2022/07/23 11:34:57;;;;;;;5.80;5.30;;;33.90;70.60;;;;;;5046390;28;20947;-93
2022/07/23 11:37:32;;;;;;;5.57;5.27;;;33.60;71.10;;;;;;5044080;28;20467;-91
2022/07/23 11:39:59;;;;;;;5.90;5.50;;;33.40;71.50;;;;;;5046729;28;20531;-91
2022/07/23 11:42:28;;;;;;;5.50;5.20;;;33.50;72.70;;;;;;5049341;28;20459;-93
2022/07/23 11:44:55;;;;;;;5.47;5.17;;;33.60;72.00;;;;;;5045546;28;20545;-91
2022/07/23 11:47:25;;;;;;;6.03;5.63;;;33.70;69.30;;;;;;5043828;28;20450;-88
2022/07/23 11:49:56;;;;;;;6.27;5.87;;;33.40;70.80;;;;;;5047683;28;20973;-89
2022/07/23 11:52:25;;;;;;;5.40;5.00;;;33.30;72.20;;;;;;5047779;28;20549;-92
2022/07/23 11:54:54;;;;;;;5.90;5.57;;;33.50;72.80;;;;;;5046970;28;20487;-77
2022/07/23 11:57:24;;;;;;;6.00;5.70;;;33.60;72.20;;;;;;5047682;28;20549;-78
2022/07/23 11:59:56;;;;;;;6.90;6.40;;;33.80;71.80;;;;;;5045298;28;20469;-93
2022/07/23 12:02:25;;;;;;;5.90;5.50;;;33.90;71.00;;;;;;5041621;28;20479;-89
2022/07/23 12:04:54;;;;;;;6.20;5.80;;;33.90;72.00;;;;;;5049234;28;20455;-91
2022/07/23 12:07:25;;;;;;;6.27;5.87;;;33.90;72.30;;;;;;5032582;28;20858;-91
2022/07/23 12:09:53;;;;;;;5.80;5.40;;;33.80;68.90;;;;;;5040041;28;20476;-78
2022/07/23 12:12:20;;;;;;;6.23;5.80;;;33.90;70.00;;;;;;5043161;28;20634;-90
2022/07/23 15:05:42;;;;;;;7.50;7.10;;;37.00;56.10;;;;;;6134205;23;20976;-84
2022/07/23 15:08:10;;;;;;;7.50;7.10;;;36.80;56.40;;;;;;6118869;23;20451;-81
2022/07/23 15:10:37;;;;;;;7.90;7.40;;;36.20;56.30;;;;;;6114538;23;20846;-86
2022/07/23 15:13:05;;;;;;;6.93;6.53;;;35.50;57.40;;;;;;6100767;23;20460;-86
2022/07/23 15:15:32;;;;;;;7.30;6.80;;;34.90;58.60;;;;;;6123295;23;20587;-86
2022/07/23 15:17:59;;;;;;;6.73;6.33;;;34.70;59.30;;;;;;6132053;23;20940;-87
2022/07/23 15:20:26;;;;;;;7.20;6.80;;;34.80;59.40;;;;;;6122763;23;20562;-87
2022/07/23 15:22:54;;;;;;;7.00;6.40;;;34.90;58.70;;;;;;6131390;23;20483;-88
2022/07/23 15:25:22;;;;;;;7.20;6.70;;;35.00;59.10;;;;;;6127763;23;21142;-89
2022/07/23 15:27:49;;;;;;;7.10;6.60;;;35.40;59.20;;;;;;6127112;23;20433;-89
2022/07/23 15:30:16;;;;;;;7.73;7.23;;;35.60;58.80;;;;;;6125943;23;20509;-88
2022/07/23 15:32:43;;;;;;;7.40;7.00;;;35.60;58.90;;;;;;6133473;23;20493;-89
2022/07/23 15:35:10;;;;;;;6.97;6.57;;;35.70;58.80;;;;;;6129062;23;20983;-89
2022/07/23 15:37:37;;;;;;;7.70;7.20;;;36.00;58.20;;;;;;6125708;23;20528;-89
2022/07/23 15:40:08;;;;;;;7.73;7.23;;;35.90;58.80;;;;;;6123817;23;20780;-93
2022/07/23 15:42:35;;;;;;;6.67;6.27;;;35.80;58.20;;;;;;6121079;23;20541;-93
2022/07/23 15:45:03;;;;;;;6.80;6.40;;;35.60;58.00;;;;;;6123766;23;20468;-85
2022/07/23 15:47:30;;;;;;;7.63;7.13;;;35.30;58.30;;;;;;6123743;23;20624;-89
2022/07/23 15:49:57;;;;;;;7.37;6.97;;;35.00;58.70;;;;;;6123719;23;20520;-92